Airfield :
LOGIN :

Register | Disclaimer

   EN    FR    IT 

 










Legend :    VFR   Marginal VFR   IFR   Intensive IFR   Very Intensive IFR
Visi :
Ceiling :
>= 8 km
>= 3000ft
5 to 8 km
1000 to 3000 ft
1500m to 5 km
500 to 1000 ft
800 to 1500m
200 to 500 ft
< 800m
< 200 ft
Symbols :   Thunderstorms  Fog  Heavy snow  Heavy precipitations  Wind > 20 kt
SIGMETs :     Misc.  Thunderstorms  Icing  Turbulence  Mountain Waves  Volcanic Ashes






- Airport Elevation : 157 ft
- IATA code : LTK


OSLK - Bassel Al-Hazad Int.

CURRENT METAR :
  • 191800Z 06003KT 9999 FEW026TCU SCT030 22//19 Q1017

EXPIRED METARs :
  • 191700Z 11004KT 9999 FEW026TCU SCT030 23/19 Q1016
  • 191600Z VRB03KT 9999 FEW026TCU SCT030 24/20 Q1016

TAF OSLK
Valid from the 19 at 18:00 until the 20 at 18:00 UTC


1918/2018 15008KT 9999 FEW030
BECMG 2008/2010 20012KT 8000TS SHRA FEW026CB SCT030 BKN100



MET'MAP, your aeronautical weather chart ! - Copyright ORBIFLY December 2007 - Disclaimer

ORBIFLY MET'MAP TEAM :

Programming & Development : Alexandra Zaïnal
Concept & Development : Baudouin d'Aumeries
Co-Development & Prog : Marc-Olivier Méhu
Technical & hardware support : Manuel Goepfert

Contact : metmap@orbifly.com




SOURCES & CREDITS :

   NOAA